sensor_id;sensor_type;location;lat;lon;timestamp;pressure;altitude;pressure_sealevel;temperature;humidity
61318;BME280;47201;40.428;-8.436;2023-01-29T00:01:43;101420.97;;;5.16;97.23
61318;BME280;47201;40.428;-8.436;2023-01-29T00:03:43;101416.78;;;5.48;90.94
61318;BME280;47201;40.428;-8.436;2023-01-29T00:05:44;101413.97;;;5.69;89.16
61318;BME280;47201;40.428;-8.436;2023-01-29T00:07:45;101404.97;;;5.87;87.29
61318;BME280;47201;40.428;-8.436;2023-01-29T00:09:45;101397.59;;;5.99;83.45
61318;BME280;47201;40.428;-8.436;2023-01-29T00:11:46;101402.59;;;6.25;79.55
61318;BME280;47201;40.428;-8.436;2023-01-29T00:13:46;101393.59;;;6.44;76.66
61318;BME280;47201;40.428;-8.436;2023-01-29T00:15:54;101391.84;;;6.78;72.52
61318;BME280;47201;40.428;-8.436;2023-01-29T00:17:55;101389.25;;;7.13;70.09
61318;BME280;47201;40.428;-8.436;2023-01-29T00:19:56;101390.72;;;7.40;68.32
61318;BME280;47201;40.428;-8.436;2023-01-29T00:21:56;101395.31;;;7.52;66.06
61318;BME280;47201;40.428;-8.436;2023-01-29T00:23:57;101397.22;;;7.61;65.88
61318;BME280;47201;40.428;-8.436;2023-01-29T00:26:00;101396.63;;;7.73;63.90
61318;BME280;47201;40.428;-8.436;2023-01-29T00:28:01;101400.28;;;7.83;62.99
61318;BME280;47201;40.428;-8.436;2023-01-29T00:30:02;101408.25;;;7.89;62.03
61318;BME280;47201;40.428;-8.436;2023-01-29T00:32:11;101401.44;;;7.97;61.60
61318;BME280;47201;40.428;-8.436;2023-01-29T00:34:11;101393.72;;;8.00;60.72
61318;BME280;47201;40.428;-8.436;2023-01-29T00:36:12;101400.78;;;8.06;60.52
61318;BME280;47201;40.428;-8.436;2023-01-29T00:38:13;101399.03;;;8.06;60.33
61318;BME280;47201;40.428;-8.436;2023-01-29T00:40:14;101391.03;;;7.97;61.32
61318;BME280;47201;40.428;-8.436;2023-01-29T00:42:14;101390.06;;;7.92;60.48
61318;BME280;47201;40.428;-8.436;2023-01-29T00:44:33;101384.03;;;7.93;60.83
61318;BME280;47201;40.428;-8.436;2023-01-29T00:46:52;101387.41;;;7.89;60.63
61318;BME280;47201;40.428;-8.436;2023-01-29T00:48:53;101376.13;;;7.88;60.84
61318;BME280;47201;40.428;-8.436;2023-01-29T00:50:54;101392.56;;;7.86;61.38
61318;BME280;47201;40.428;-8.436;2023-01-29T00:52:54;101376.81;;;7.80;61.47
61318;BME280;47201;40.428;-8.436;2023-01-29T00:54:56;101369.00;;;7.80;61.08
61318;BME280;47201;40.428;-8.436;2023-01-29T00:56:57;101379.47;;;7.83;61.63
61318;BME280;47201;40.428;-8.436;2023-01-29T00:58:57;101391.59;;;7.81;61.65
61318;BME280;47201;40.428;-8.436;2023-01-29T01:00:59;101363.06;;;7.87;60.59
61318;BME280;47201;40.428;-8.436;2023-01-29T01:03:00;101373.59;;;7.91;61.07
61318;BME280;47201;40.428;-8.436;2023-01-29T01:05:08;101386.50;;;7.87;62.23
61318;BME280;47201;40.428;-8.436;2023-01-29T01:07:13;101386.31;;;7.77;62.82
61318;BME280;47201;40.428;-8.436;2023-01-29T01:09:13;101387.00;;;7.69;63.78
61318;BME280;47201;40.428;-8.436;2023-01-29T01:11:34;101387.72;;;7.61;64.25
61318;BME280;47201;40.428;-8.436;2023-01-29T01:13:35;101376.47;;;7.62;63.27
61318;BME280;47201;40.428;-8.436;2023-01-29T01:15:37;101374.81;;;7.66;63.63
61318;BME280;47201;40.428;-8.436;2023-01-29T01:17:37;101387.88;;;7.71;63.67
61318;BME280;47201;40.428;-8.436;2023-01-29T01:19:38;101397.50;;;7.73;63.39
61318;BME280;47201;40.428;-8.436;2023-01-29T01:21:39;101401.81;;;7.71;64.16
61318;BME280;47201;40.428;-8.436;2023-01-29T01:23:39;101405.13;;;7.64;65.24
61318;BME280;47201;40.428;-8.436;2023-01-29T01:25:40;101396.28;;;7.57;65.77
61318;BME280;47201;40.428;-8.436;2023-01-29T01:27:40;101403.19;;;7.55;65.49
61318;BME280;47201;40.428;-8.436;2023-01-29T01:29:41;101390.22;;;7.57;65.39
61318;BME280;47201;40.428;-8.436;2023-01-29T01:31:42;101400.66;;;7.60;64.96
61318;BME280;47201;40.428;-8.436;2023-01-29T01:33:42;101392.88;;;7.60;65.44
61318;BME280;47201;40.428;-8.436;2023-01-29T01:35:43;101382.28;;;7.51;66.27
61318;BME280;47201;40.428;-8.436;2023-01-29T01:37:43;101389.19;;;7.50;65.85
61318;BME280;47201;40.428;-8.436;2023-01-29T01:39:44;101391.03;;;7.54;66.10
61318;BME280;47201;40.428;-8.436;2023-01-29T01:41:48;101391.06;;;7.57;65.50
61318;BME280;47201;40.428;-8.436;2023-01-29T01:43:58;101379.81;;;7.57;66.03
61318;BME280;47201;40.428;-8.436;2023-01-29T01:45:59;101387.59;;;7.55;66.43
61318;BME280;47201;40.428;-8.436;2023-01-29T01:48:02;101391.03;;;7.54;66.57
61318;BME280;47201;40.428;-8.436;2023-01-29T01:50:06;101403.25;;;7.58;66.22
61318;BME280;47201;40.428;-8.436;2023-01-29T01:52:08;101401.34;;;7.50;67.03
61318;BME280;47201;40.428;-8.436;2023-01-29T01:54:20;101409.00;;;7.43;67.41
61318;BME280;47201;40.428;-8.436;2023-01-29T01:56:26;101404.53;;;7.38;67.50
61318;BME280;47201;40.428;-8.436;2023-01-29T01:58:47;101413.25;;;7.40;67.76
61318;BME280;47201;40.428;-8.436;2023-01-29T02:00:50;101407.16;;;7.39;67.64
61318;BME280;47201;40.428;-8.436;2023-01-29T02:02:50;101407.03;;;7.33;68.03
61318;BME280;47201;40.428;-8.436;2023-01-29T02:05:10;101407.72;;;7.26;68.35
61318;BME280;47201;40.428;-8.436;2023-01-29T02:07:30;101409.25;;;7.18;69.10
61318;BME280;47201;40.428;-8.436;2023-01-29T02:09:54;101410.94;;;7.15;69.20
61318;BME280;47201;40.428;-8.436;2023-01-29T02:12:04;101402.34;;;7.18;68.49
61318;BME280;47201;40.428;-8.436;2023-01-29T02:14:05;101405.75;;;7.15;68.50
61318;BME280;47201;40.428;-8.436;2023-01-29T02:16:05;101412.59;;;7.12;68.72
61318;BME280;47201;40.428;-8.436;2023-01-29T02:18:07;101408.84;;;6.99;69.58
61318;BME280;47201;40.428;-8.436;2023-01-29T02:28:50;101421.84;;;6.99;68.31
61318;BME280;47201;40.428;-8.436;2023-01-29T02:33:02;101422.56;;;6.93;68.53
61318;BME280;47201;40.428;-8.436;2023-01-29T02:37:31;101420.91;;;6.97;68.27
61318;BME280;47201;40.428;-8.436;2023-01-29T02:44:17;101411.84;;;7.16;67.40
61318;BME280;47201;40.428;-8.436;2023-01-29T02:48:37;101409.25;;;7.18;68.22
61318;BME280;47201;40.428;-8.436;2023-01-29T02:55:00;101402.97;;;7.08;69.09
61318;BME280;47201;40.428;-8.436;2023-01-29T02:57:08;101400.97;;;6.97;69.73
61318;BME280;47201;40.428;-8.436;2023-01-29T02:59:17;101396.59;;;6.95;70.57
61318;BME280;47201;40.428;-8.436;2023-01-29T03:01:25;101398.44;;;6.99;69.93
61318;BME280;47201;40.428;-8.436;2023-01-29T03:03:51;101386.34;;;7.01;69.62
61318;BME280;47201;40.428;-8.436;2023-01-29T03:06:00;101373.34;;;7.01;69.24
61318;BME280;47201;40.428;-8.436;2023-01-29T03:08:06;101384.19;;;7.20;68.21
61318;BME280;47201;40.428;-8.436;2023-01-29T03:12:20;101383.25;;;7.18;68.91
61318;BME280;47201;40.428;-8.436;2023-01-29T03:14:35;101378.03;;;7.16;68.93
61318;BME280;47201;40.428;-8.436;2023-01-29T03:17:00;101372.69;;;7.10;68.78
61318;BME280;47201;40.428;-8.436;2023-01-29T03:19:05;101369.16;;;7.06;69.26
61318;BME280;47201;40.428;-8.436;2023-01-29T03:21:09;101370.84;;;7.06;69.15
61318;BME280;47201;40.428;-8.436;2023-01-29T03:23:31;101380.28;;;7.02;69.37
61318;BME280;47201;40.428;-8.436;2023-01-29T03:25:53;101346.25;;;6.91;69.50
61318;BME280;47201;40.428;-8.436;2023-01-29T03:28:16;101361.81;;;6.90;69.54
61318;BME280;47201;40.428;-8.436;2023-01-29T03:30:40;101366.81;;;6.82;69.68
61318;BME280;47201;40.428;-8.436;2023-01-29T03:33:07;101367.69;;;6.81;69.89
61318;BME280;47201;40.428;-8.436;2023-01-29T03:35:09;101365.84;;;6.78;69.69
61318;BME280;47201;40.428;-8.436;2023-01-29T03:37:17;101364.91;;;6.75;70.25
61318;BME280;47201;40.428;-8.436;2023-01-29T03:39:20;101363.22;;;6.75;70.12
61318;BME280;47201;40.428;-8.436;2023-01-29T03:41:24;101359.38;;;6.61;69.76
61318;BME280;47201;40.428;-8.436;2023-01-29T03:45:54;101351.66;;;6.64;69.77
61318;BME280;47201;40.428;-8.436;2023-01-29T03:52:10;101368.59;;;6.49;69.77
61318;BME280;47201;40.428;-8.436;2023-01-29T03:54:17;101353.94;;;6.51;69.62
61318;BME280;47201;40.428;-8.436;2023-01-29T03:58:23;101359.97;;;6.50;69.38
61318;BME280;47201;40.428;-8.436;2023-01-29T04:00:28;101353.91;;;6.50;69.59
61318;BME280;47201;40.428;-8.436;2023-01-29T04:02:36;101355.84;;;6.59;68.46
61318;BME280;47201;40.428;-8.436;2023-01-29T04:04:42;101361.06;;;6.59;68.46
61318;BME280;47201;40.428;-8.436;2023-01-29T04:06:46;101358.38;;;6.56;68.61
61318;BME280;47201;40.428;-8.436;2023-01-29T04:08:56;101363.66;;;6.59;68.41
61318;BME280;47201;40.428;-8.436;2023-01-29T04:11:00;101363.56;;;6.56;68.03
61318;BME280;47201;40.428;-8.436;2023-01-29T04:13:05;101356.94;;;6.67;67.50
61318;BME280;47201;40.428;-8.436;2023-01-29T04:15:08;101353.50;;;6.68;67.56
61318;BME280;47201;40.428;-8.436;2023-01-29T04:17:11;101345.72;;;6.70;67.08
61318;BME280;47201;40.428;-8.436;2023-01-29T04:19:35;101343.22;;;6.73;67.25
61318;BME280;47201;40.428;-8.436;2023-01-29T04:21:36;101364.97;;;6.76;66.96
61318;BME280;47201;40.428;-8.436;2023-01-29T04:23:37;101353.81;;;6.82;66.19
61318;BME280;47201;40.428;-8.436;2023-01-29T04:25:42;101359.91;;;6.82;66.47
61318;BME280;47201;40.428;-8.436;2023-01-29T04:32:14;101364.34;;;6.87;66.14
61318;BME280;47201;40.428;-8.436;2023-01-29T04:36:33;101376.50;;;6.88;66.12
61318;BME280;47201;40.428;-8.436;2023-01-29T04:40:55;101350.44;;;6.85;66.53
61318;BME280;47201;40.428;-8.436;2023-01-29T04:55:37;101360.75;;;6.81;67.08
61318;BME280;47201;40.428;-8.436;2023-01-29T05:00:04;101358.84;;;6.74;67.88
61318;BME280;47201;40.428;-8.436;2023-01-29T05:02:07;101365.53;;;6.64;68.49
61318;BME280;47201;40.428;-8.436;2023-01-29T05:04:10;101361.28;;;6.68;67.96
61318;BME280;47201;40.428;-8.436;2023-01-29T05:06:13;101370.03;;;6.72;68.12
61318;BME280;47201;40.428;-8.436;2023-01-29T05:08:16;101355.41;;;6.75;67.73
61318;BME280;47201;40.428;-8.436;2023-01-29T05:10:18;101357.22;;;6.79;67.92
61318;BME280;47201;40.428;-8.436;2023-01-29T05:12:22;101371.00;;;6.75;68.18
61318;BME280;47201;40.428;-8.436;2023-01-29T05:14:25;101357.09;;;6.73;67.92
61318;BME280;47201;40.428;-8.436;2023-01-29T05:16:31;101368.13;;;6.64;68.56
61318;BME280;47201;40.428;-8.436;2023-01-29T05:18:41;101349.94;;;6.64;68.44
61318;BME280;47201;40.428;-8.436;2023-01-29T05:20:42;101355.88;;;6.60;68.61
61318;BME280;47201;40.428;-8.436;2023-01-29T05:22:42;101362.81;;;6.60;68.90
61318;BME280;47201;40.428;-8.436;2023-01-29T05:24:44;101366.22;;;6.57;69.05
61318;BME280;47201;40.428;-8.436;2023-01-29T05:26:46;101367.31;;;6.67;68.62
61318;BME280;47201;40.428;-8.436;2023-01-29T05:29:05;101369.13;;;6.70;67.97
61318;BME280;47201;40.428;-8.436;2023-01-29T05:31:06;101353.34;;;6.62;68.82
61318;BME280;47201;40.428;-8.436;2023-01-29T05:33:15;101355.75;;;6.54;69.06
61318;BME280;47201;40.428;-8.436;2023-01-29T05:35:16;101366.22;;;6.57;68.74
61318;BME280;47201;40.428;-8.436;2023-01-29T05:37:16;101361.84;;;6.55;68.92
61318;BME280;47201;40.428;-8.436;2023-01-29T05:39:17;101369.38;;;6.45;69.55
61318;BME280;47201;40.428;-8.436;2023-01-29T05:41:17;101370.94;;;6.39;69.70
61318;BME280;47201;40.428;-8.436;2023-01-29T05:43:19;101382.22;;;6.39;69.56
61318;BME280;47201;40.428;-8.436;2023-01-29T05:45:20;101378.81;;;6.42;69.14
61318;BME280;47201;40.428;-8.436;2023-01-29T05:47:20;101395.34;;;6.45;69.47
61318;BME280;47201;40.428;-8.436;2023-01-29T05:49:21;101393.50;;;6.41;69.25
61318;BME280;47201;40.428;-8.436;2023-01-29T05:51:22;101389.06;;;6.37;69.55
61318;BME280;47201;40.428;-8.436;2023-01-29T05:53:22;101389.06;;;6.37;69.37
61318;BME280;47201;40.428;-8.436;2023-01-29T05:55:23;101388.94;;;6.32;69.67
61318;BME280;47201;40.428;-8.436;2023-01-29T05:57:23;101387.84;;;6.24;69.88
61318;BME280;47201;40.428;-8.436;2023-01-29T05:59:24;101389.53;;;6.22;69.33
61318;BME280;47201;40.428;-8.436;2023-01-29T06:01:24;101397.59;;;6.33;69.04
61318;BME280;47201;40.428;-8.436;2023-01-29T06:03:25;101395.00;;;6.33;68.99
61318;BME280;47201;40.428;-8.436;2023-01-29T06:05:26;101394.97;;;6.31;68.88
61318;BME280;47201;40.428;-8.436;2023-01-29T06:07:26;101398.53;;;6.35;68.69
61318;BME280;47201;40.428;-8.436;2023-01-29T06:09:27;101402.72;;;6.30;69.04
61318;BME280;47201;40.428;-8.436;2023-01-29T06:11:27;101404.13;;;6.18;69.43
61318;BME280;47201;40.428;-8.436;2023-01-29T06:13:28;101400.63;;;6.16;69.01
61318;BME280;47201;40.428;-8.436;2023-01-29T06:15:28;101410.97;;;6.15;68.86
61318;BME280;47201;40.428;-8.436;2023-01-29T06:17:29;101403.81;;;6.06;69.05
61318;BME280;47201;40.428;-8.436;2023-01-29T06:19:29;101411.28;;;5.97;69.54
61318;BME280;47201;40.428;-8.436;2023-01-29T06:21:30;101405.44;;;6.02;69.13
61318;BME280;47201;40.428;-8.436;2023-01-29T06:23:31;101413.06;;;5.98;68.75
61318;BME280;47201;40.428;-8.436;2023-01-29T06:25:31;101399.50;;;6.07;68.11
61318;BME280;47201;40.428;-8.436;2023-01-29T06:27:32;101403.75;;;6.03;68.23
61318;BME280;47201;40.428;-8.436;2023-01-29T06:29:32;101415.13;;;6.08;68.10
61318;BME280;47201;40.428;-8.436;2023-01-29T06:31:33;101407.06;;;5.99;68.53
61318;BME280;47201;40.428;-8.436;2023-01-29T06:33:33;101413.81;;;5.94;68.82
61318;BME280;47201;40.428;-8.436;2023-01-29T06:35:34;101423.72;;;6.06;68.33
61318;BME280;47201;40.428;-8.436;2023-01-29T06:37:34;101426.78;;;5.94;68.92
61318;BME280;47201;40.428;-8.436;2023-01-29T06:39:35;101422.63;;;5.99;68.18
61318;BME280;47201;40.428;-8.436;2023-01-29T06:41:36;101412.34;;;6.02;68.18
61318;BME280;47201;40.428;-8.436;2023-01-29T06:43:37;101417.69;;;6.07;67.41
61318;BME280;47201;40.428;-8.436;2023-01-29T06:45:37;101422.56;;;6.28;66.12
61318;BME280;47201;40.428;-8.436;2023-01-29T06:47:38;101423.56;;;6.33;66.25
61318;BME280;47201;40.428;-8.436;2023-01-29T06:49:38;101426.00;;;6.27;66.66
61318;BME280;47201;40.428;-8.436;2023-01-29T06:51:39;101421.59;;;6.24;66.66
61318;BME280;47201;40.428;-8.436;2023-01-29T06:53:39;101434.94;;;6.37;66.36
61318;BME280;47201;40.428;-8.436;2023-01-29T06:55:40;101428.97;;;6.39;66.45
61318;BME280;47201;40.428;-8.436;2023-01-29T06:57:40;101444.53;;;6.39;66.78
61318;BME280;47201;40.428;-8.436;2023-01-29T06:59:41;101431.56;;;6.39;66.17
61318;BME280;47201;40.428;-8.436;2023-01-29T07:01:42;101443.75;;;6.42;66.17
61318;BME280;47201;40.428;-8.436;2023-01-29T07:03:43;101447.00;;;6.34;66.97
61318;BME280;47201;40.428;-8.436;2023-01-29T07:05:50;101456.56;;;6.35;66.58
61318;BME280;47201;40.428;-8.436;2023-01-29T07:07:51;101458.84;;;6.25;67.07
61318;BME280;47201;40.428;-8.436;2023-01-29T07:09:53;101463.94;;;6.22;66.77
61318;BME280;47201;40.428;-8.436;2023-01-29T07:11:53;101474.47;;;6.26;66.88
61318;BME280;47201;40.428;-8.436;2023-01-29T07:13:54;101472.56;;;6.21;67.20
61318;BME280;47201;40.428;-8.436;2023-01-29T07:15:58;101482.28;;;6.28;67.11
61318;BME280;47201;40.428;-8.436;2023-01-29T07:18:00;101478.88;;;6.29;66.66
61318;BME280;47201;40.428;-8.436;2023-01-29T07:20:00;101477.75;;;6.21;67.31
61318;BME280;47201;40.428;-8.436;2023-01-29T07:22:01;101489.91;;;6.22;67.34
61318;BME280;47201;40.428;-8.436;2023-01-29T07:24:03;101477.63;;;6.16;67.25
61318;BME280;47201;40.428;-8.436;2023-01-29T07:26:04;101489.50;;;6.08;67.32
61318;BME280;47201;40.428;-8.436;2023-01-29T07:28:04;101497.59;;;6.18;67.11
61318;BME280;47201;40.428;-8.436;2023-01-29T07:30:05;101486.53;;;6.24;66.74
61318;BME280;47201;40.428;-8.436;2023-01-29T07:32:06;101496.94;;;6.26;66.66
61318;BME280;47201;40.428;-8.436;2023-01-29T07:34:07;101491.84;;;6.29;66.21
61318;BME280;47201;40.428;-8.436;2023-01-29T07:36:08;101489.25;;;6.29;66.96
61318;BME280;47201;40.428;-8.436;2023-01-29T07:38:09;101487.31;;;6.22;66.73
61318;BME280;47201;40.428;-8.436;2023-01-29T07:40:10;101494.34;;;6.26;66.53
61318;BME280;47201;40.428;-8.436;2023-01-29T07:42:11;101491.03;;;6.30;66.27
61318;BME280;47201;40.428;-8.436;2023-01-29T07:44:11;101486.56;;;6.26;66.31
61318;BME280;47201;40.428;-8.436;2023-01-29T07:46:12;101487.44;;;6.26;66.66
61318;BME280;47201;40.428;-8.436;2023-01-29T07:48:12;101498.03;;;6.34;66.42
61318;BME280;47201;40.428;-8.436;2023-01-29T07:50:13;101505.44;;;6.50;65.76
61318;BME280;47201;40.428;-8.436;2023-01-29T07:52:13;101506.44;;;6.56;65.85
61318;BME280;47201;40.428;-8.436;2023-01-29T07:54:14;101489.66;;;6.43;66.82
61318;BME280;47201;40.428;-8.436;2023-01-29T07:56:14;101490.47;;;6.40;67.06
61318;BME280;47201;40.428;-8.436;2023-01-29T07:58:15;101494.75;;;6.40;66.89
61318;BME280;47201;40.428;-8.436;2023-01-29T08:00:15;101487.09;;;6.44;67.26
61318;BME280;47201;40.428;-8.436;2023-01-29T08:02:16;101496.66;;;6.45;67.43
61318;BME280;47201;40.428;-8.436;2023-01-29T08:04:17;101480.91;;;6.39;67.83
61318;BME280;47201;40.428;-8.436;2023-01-29T08:06:17;101501.88;;;6.47;67.27
61318;BME280;47201;40.428;-8.436;2023-01-29T08:08:21;101489.78;;;6.47;67.43
61318;BME280;47201;40.428;-8.436;2023-01-29T08:10:22;101492.28;;;6.44;67.46
61318;BME280;47201;40.428;-8.436;2023-01-29T08:12:23;101500.91;;;6.43;67.41
61318;BME280;47201;40.428;-8.436;2023-01-29T08:14:23;101498.31;;;6.43;67.89
61318;BME280;47201;40.428;-8.436;2023-01-29T08:16:23;101498.31;;;6.43;67.80
61318;BME280;47201;40.428;-8.436;2023-01-29T08:18:24;101504.16;;;6.36;68.75
61318;BME280;47201;40.428;-8.436;2023-01-29T08:20:24;101513.47;;;6.28;69.26
61318;BME280;47201;40.428;-8.436;2023-01-29T08:22:25;101498.63;;;6.24;69.61
61318;BME280;47201;40.428;-8.436;2023-01-29T08:24:25;101500.50;;;6.29;69.03
61318;BME280;47201;40.428;-8.436;2023-01-29T08:26:26;101501.56;;;6.36;68.85
61318;BME280;47201;40.428;-8.436;2023-01-29T08:28:27;101506.88;;;6.39;68.91
61318;BME280;47201;40.428;-8.436;2023-01-29T08:30:28;101508.81;;;6.46;68.71
61318;BME280;47201;40.428;-8.436;2023-01-29T08:32:29;101514.03;;;6.48;68.73
61318;BME280;47201;40.428;-8.436;2023-01-29T08:34:29;101514.47;;;6.63;66.92
61318;BME280;47201;40.428;-8.436;2023-01-29T08:36:30;101514.69;;;7.05;65.06
61318;BME280;47201;40.428;-8.436;2023-01-29T08:38:31;101511.22;;;8.16;60.26
61318;BME280;47201;40.428;-8.436;2023-01-29T08:40:32;101499.84;;;8.53;58.20
61318;BME280;47201;40.428;-8.436;2023-01-29T08:42:33;101517.28;;;8.56;59.04
61318;BME280;47201;40.428;-8.436;2023-01-29T08:44:33;101515.00;;;8.30;60.57
61318;BME280;47201;40.428;-8.436;2023-01-29T08:46:34;101516.09;;;8.00;61.79
61318;BME280;47201;40.428;-8.436;2023-01-29T08:48:35;101530.53;;;7.86;63.16
61318;BME280;47201;40.428;-8.436;2023-01-29T08:50:35;101525.78;;;7.68;63.57
61318;BME280;47201;40.428;-8.436;2023-01-29T08:52:36;101522.06;;;7.58;63.87
61318;BME280;47201;40.428;-8.436;2023-01-29T08:54:37;101518.31;;;7.46;64.48
61318;BME280;47201;40.428;-8.436;2023-01-29T08:56:37;101527.06;;;7.50;64.79
61318;BME280;47201;40.428;-8.436;2023-01-29T08:58:38;101512.28;;;7.47;65.15
61318;BME280;47201;40.428;-8.436;2023-01-29T09:00:38;101513.19;;;7.48;65.62
61318;BME280;47201;40.428;-8.436;2023-01-29T09:02:39;101527.84;;;7.46;66.04
61318;BME280;47201;40.428;-8.436;2023-01-29T09:04:39;101524.47;;;7.50;66.11
61318;BME280;47201;40.428;-8.436;2023-01-29T09:06:40;101523.47;;;7.43;65.98
61318;BME280;47201;40.428;-8.436;2023-01-29T09:08:40;101526.91;;;7.42;66.01
61318;BME280;47201;40.428;-8.436;2023-01-29T09:10:41;101536.59;;;7.48;66.05
61318;BME280;47201;40.428;-8.436;2023-01-29T09:12:41;101528.88;;;7.53;66.33
61318;BME280;47201;40.428;-8.436;2023-01-29T09:14:42;101528.03;;;7.54;66.62
61318;BME280;47201;40.428;-8.436;2023-01-29T09:16:42;101520.34;;;7.58;66.13
61318;BME280;47201;40.428;-8.436;2023-01-29T09:18:43;101517.00;;;7.62;65.85
61318;BME280;47201;40.428;-8.436;2023-01-29T09:20:43;101533.69;;;7.72;66.03
61318;BME280;47201;40.428;-8.436;2023-01-29T09:22:45;101539.16;;;8.24;63.92
61318;BME280;47201;40.428;-8.436;2023-01-29T09:24:45;101513.47;;;8.41;62.95
61318;BME280;47201;40.428;-8.436;2023-01-29T09:26:46;101558.03;;;8.52;62.32
61318;BME280;47201;40.428;-8.436;2023-01-29T09:28:46;101532.81;;;8.96;61.16
61318;BME280;47201;40.428;-8.436;2023-01-29T09:30:47;101536.59;;;10.28;56.25
61318;BME280;47201;40.428;-8.436;2023-01-29T09:32:47;101532.72;;;11.60;52.76
61318;BME280;47201;40.428;-8.436;2023-01-29T09:34:51;101520.22;;;12.89;49.81
61318;BME280;47201;40.428;-8.436;2023-01-29T09:36:51;101518.53;;;13.22;49.13
61318;BME280;47201;40.428;-8.436;2023-01-29T09:38:52;101536.03;;;13.23;51.03
61318;BME280;47201;40.428;-8.436;2023-01-29T09:43:06;101530.75;;;13.97;51.45
61318;BME280;47201;40.428;-8.436;2023-01-29T09:45:11;101498.31;;;14.03;52.19
61318;BME280;47201;40.428;-8.436;2023-01-29T09:47:13;101521.69;;;14.79;51.26
61318;BME280;47201;40.428;-8.436;2023-01-29T09:49:19;101533.88;;;14.92;52.34
61318;BME280;47201;40.428;-8.436;2023-01-29T09:51:26;101545.38;;;14.74;53.50
61318;BME280;47201;40.428;-8.436;2023-01-29T09:53:38;101529.84;;;14.18;56.50
61318;BME280;47201;40.428;-8.436;2023-01-29T09:55:42;101549.94;;;14.36;57.19
61318;BME280;47201;40.428;-8.436;2023-01-29T09:57:49;101526.28;;;14.25;58.13
61318;BME280;47201;40.428;-8.436;2023-01-29T09:59:49;101542.13;;;14.10;59.49
61318;BME280;47201;40.428;-8.436;2023-01-29T10:08:24;101531.97;;;16.11;56.46
61318;BME280;47201;40.428;-8.436;2023-01-29T10:10:37;101510.38;;;14.55;61.15
61318;BME280;47201;40.428;-8.436;2023-01-29T10:12:50;101534.97;;;14.48;62.48
61318;BME280;47201;40.428;-8.436;2023-01-29T10:14:58;101528.84;;;14.47;62.89
61318;BME280;47201;40.428;-8.436;2023-01-29T10:23:41;101558.63;;;15.80;61.41
61318;BME280;47201;40.428;-8.436;2023-01-29T10:25:45;101556.91;;;15.77;62.19
61318;BME280;47201;40.428;-8.436;2023-01-29T10:27:49;101539.34;;;15.76;62.26
61318;BME280;47201;40.428;-8.436;2023-01-29T10:29:51;101562.75;;;16.09;62.60
61318;BME280;47201;40.428;-8.436;2023-01-29T10:31:54;101542.38;;;16.90;61.27
61318;BME280;47201;40.428;-8.436;2023-01-29T10:33:59;101508.16;;;16.86;60.85
61318;BME280;47201;40.428;-8.436;2023-01-29T10:36:03;101556.88;;;15.85;63.79
61318;BME280;47201;40.428;-8.436;2023-01-29T10:40:20;101553.38;;;16.59;63.28
61318;BME280;47201;40.428;-8.436;2023-01-29T10:42:27;101540.84;;;17.36;61.76
61318;BME280;47201;40.428;-8.436;2023-01-29T10:44:39;101541.91;;;17.24;62.80
61318;BME280;47201;40.428;-8.436;2023-01-29T10:46:56;101554.53;;;17.58;62.52
61318;BME280;47201;40.428;-8.436;2023-01-29T11:01:21;101531.00;;;16.88;65.11
61318;BME280;47201;40.428;-8.436;2023-01-29T11:03:28;101550.88;;;16.47;66.98
61318;BME280;47201;40.428;-8.436;2023-01-29T11:08:04;101542.47;;;17.95;64.90
61318;BME280;47201;40.428;-8.436;2023-01-29T11:10:10;101541.53;;;18.43;63.85
61318;BME280;47201;40.428;-8.436;2023-01-29T11:12:14;101548.59;;;18.83;63.46
61318;BME280;47201;40.428;-8.436;2023-01-29T11:14:18;101540.66;;;18.41;64.26
61318;BME280;47201;40.428;-8.436;2023-01-29T11:16:21;101546.16;;;18.32;65.17
61318;BME280;47201;40.428;-8.436;2023-01-29T11:18:21;101543.28;;;17.49;66.57
61318;BME280;47201;40.428;-8.436;2023-01-29T11:20:26;101531.94;;;17.90;66.15
61318;BME280;47201;40.428;-8.436;2023-01-29T11:22:27;101528.19;;;17.55;67.43
61318;BME280;47201;40.428;-8.436;2023-01-29T11:24:28;101536.75;;;18.61;65.62
61318;BME280;47201;40.428;-8.436;2023-01-29T11:26:29;101543.69;;;17.74;67.69
61318;BME280;47201;40.428;-8.436;2023-01-29T11:28:40;101524.63;;;17.05;68.31
61318;BME280;47201;40.428;-8.436;2023-01-29T11:30:40;101524.31;;;17.75;67.41
61318;BME280;47201;40.428;-8.436;2023-01-29T11:32:41;101497.00;;;16.63;69.09
61318;BME280;47201;40.428;-8.436;2023-01-29T11:37:02;101531.38;;;17.21;69.26
61318;BME280;47201;40.428;-8.436;2023-01-29T11:39:09;101522.22;;;16.86;69.87
61318;BME280;47201;40.428;-8.436;2023-01-29T11:41:15;101526.63;;;17.94;67.12
61318;BME280;47201;40.428;-8.436;2023-01-29T11:43:30;101530.25;;;18.74;66.57
61318;BME280;47201;40.428;-8.436;2023-01-29T11:45:31;101517.66;;;18.45;67.44
61318;BME280;47201;40.428;-8.436;2023-01-29T11:47:33;101521.31;;;17.94;67.85
61318;BME280;47201;40.428;-8.436;2023-01-29T11:49:34;101515.84;;;18.04;68.42
61318;BME280;47201;40.428;-8.436;2023-01-29T11:51:35;101511.00;;;19.07;66.49
61318;BME280;47201;40.428;-8.436;2023-01-29T11:53:39;101500.25;;;19.47;65.01
61318;BME280;47201;40.428;-8.436;2023-01-29T11:55:41;101507.81;;;18.51;66.73
61318;BME280;47201;40.428;-8.436;2023-01-29T11:57:50;101490.31;;;18.44;67.37
61318;BME280;47201;40.428;-8.436;2023-01-29T11:59:52;101492.44;;;17.81;68.07
61318;BME280;47201;40.428;-8.436;2023-01-29T12:01:54;101482.53;;;17.92;68.02
61318;BME280;47201;40.428;-8.436;2023-01-29T12:03:55;101476.25;;;18.42;67.62
61318;BME280;47201;40.428;-8.436;2023-01-29T12:06:00;101458.97;;;19.02;66.64
61318;BME280;47201;40.428;-8.436;2023-01-29T12:08:02;101467.19;;;18.92;66.67
61318;BME280;47201;40.428;-8.436;2023-01-29T12:10:02;101457.56;;;18.09;69.01
61318;BME280;47201;40.428;-8.436;2023-01-29T12:12:16;101456.09;;;16.33;71.31
61318;BME280;47201;40.428;-8.436;2023-01-29T12:14:26;101463.94;;;14.48;74.48
61318;BME280;47201;40.428;-8.436;2023-01-29T12:18:31;101458.91;;;12.28;79.92
61318;BME280;47201;40.428;-8.436;2023-01-29T12:21:19;101434.22;;;11.91;81.58